createdAt,value
2022-09-24T00:00:02.653Z,99204.47
2022-09-24T00:00:12.598Z,99210.64
2022-09-24T00:00:22.621Z,99208.66
2022-09-24T00:00:32.526Z,99201.91
2022-09-24T00:00:42.564Z,99204.80
2022-09-24T00:00:52.604Z,99207.18
2022-09-24T00:01:02.538Z,99209.62
2022-09-24T00:01:15.966Z,99206.23
2022-09-24T00:01:22.721Z,99204.26
2022-09-24T00:01:32.796Z,99207.23
2022-09-24T00:01:42.695Z,99206.92
2022-09-24T00:01:52.575Z,99202.88
2022-09-24T00:02:02.626Z,99204.26
2022-09-24T00:02:12.699Z,99206.70
2022-09-24T00:02:22.633Z,99203.23
2022-09-24T00:02:32.649Z,99205.50
2022-09-24T00:02:42.732Z,99204.70
2022-09-24T00:02:52.652Z,99198.58
2022-09-24T00:03:02.656Z,99200.88
2022-09-24T00:03:12.667Z,99198.75
2022-09-24T00:03:22.616Z,99198.81
2022-09-24T00:03:32.609Z,99203.64
2022-09-24T00:03:42.577Z,99199.10
2022-09-24T00:03:52.530Z,99197.61
2022-09-24T00:04:02.626Z,99197.89
2022-09-24T00:04:12.832Z,99200.15
2022-09-24T00:04:22.651Z,99199.16
2022-09-24T00:04:32.588Z,99203.06
2022-09-24T00:04:42.620Z,99199.39
2022-09-24T00:04:52.569Z,99196.83
2022-09-24T00:05:02.581Z,99199.81
2022-09-24T00:05:12.563Z,99200.91
2022-09-24T00:05:22.632Z,99200.77
2022-09-24T00:05:32.580Z,99200.81
2022-09-24T00:05:42.580Z,99203.31
2022-09-24T00:05:52.596Z,99200.48
2022-09-24T00:06:02.556Z,99200.81
2022-09-24T00:06:12.606Z,99200.98
2022-09-24T00:06:22.545Z,99204.02
2022-09-24T00:06:32.581Z,99200.10
2022-09-24T00:06:42.622Z,99201.86
2022-09-24T00:06:52.593Z,99198.98
2022-09-24T00:07:02.641Z,99195.33
2022-09-24T00:07:12.525Z,99201.98
2022-09-24T00:07:22.525Z,99198.06
2022-09-24T00:07:32.615Z,99198.98
2022-09-24T00:07:42.557Z,99199.98
2022-09-24T00:07:52.531Z,99201.89
2022-09-24T00:08:02.594Z,99199.60
2022-09-24T00:08:12.526Z,99197.11
2022-09-24T00:08:22.639Z,99201.24
2022-09-24T00:08:32.656Z,99206.06
2022-09-24T00:08:42.536Z,99202.05
2022-09-24T00:08:52.545Z,99199.98
2022-09-24T00:09:02.593Z,99203.59
2022-09-24T00:09:12.561Z,99205.09
2022-09-24T00:09:22.558Z,99201.77
2022-09-24T00:09:32.612Z,99197.89
2022-09-24T00:09:42.658Z,99195.02
2022-09-24T00:09:52.615Z,99203.08
2022-09-24T00:10:02.566Z,99200.01
2022-09-24T00:10:12.621Z,99199.09
2022-09-24T00:10:22.528Z,99198.59
2022-09-24T00:10:32.567Z,99201.41
2022-09-24T00:10:42.586Z,99200.03
2022-09-24T00:10:52.631Z,99199.98
2022-09-24T00:11:02.528Z,99199.15
2022-09-24T00:11:12.554Z,99199.61
2022-09-24T00:11:22.560Z,99198.44
2022-09-24T00:11:32.576Z,99203.12
2022-09-24T00:11:42.523Z,99203.55
2022-09-24T00:11:52.590Z,99196.64
2022-09-24T00:12:02.537Z,99202.08
2022-09-24T00:12:12.645Z,99202.74
2022-09-24T00:12:22.625Z,99206.02
2022-09-24T00:12:32.564Z,99198.27
2022-09-24T00:12:42.540Z,99205.33
2022-09-24T00:12:52.524Z,99201.22
2022-09-24T00:13:02.592Z,99202.95
2022-09-24T00:13:12.656Z,99202.20
2022-09-24T00:13:22.553Z,99203.03
2022-09-24T00:13:32.626Z,99203.45
2022-09-24T00:13:42.614Z,99203.91
2022-09-24T00:13:52.579Z,99205.02
2022-09-24T00:14:02.626Z,99201.91
2022-09-24T00:14:12.628Z,99198.39
2022-09-24T00:14:22.631Z,99198.48
2022-09-24T00:14:32.577Z,99202.07
2022-09-24T00:14:42.592Z,99203.41
2022-09-24T00:14:52.581Z,99202.22
2022-09-24T00:15:02.596Z,99201.91
2022-09-24T00:15:12.652Z,99201.53
2022-09-24T00:15:22.592Z,99202.53
2022-09-24T00:15:32.562Z,99203.72
2022-09-24T00:15:42.603Z,99203.55
2022-09-24T00:15:52.579Z,99203.22
2022-09-24T00:16:02.608Z,99201.89
2022-09-24T00:16:12.715Z,99204.38
2022-09-24T00:16:22.735Z,99203.88
2022-09-24T00:16:32.620Z,99201.55
2022-09-24T00:16:42.730Z,99201.01
2022-09-24T00:16:52.555Z,99203.00
2022-09-24T00:17:02.641Z,99202.62
2022-09-24T00:17:12.541Z,99202.08
2022-09-24T00:17:22.645Z,99203.00
2022-09-24T00:17:32.533Z,99202.78
2022-09-24T00:17:42.577Z,99204.12
2022-09-24T00:17:52.631Z,99202.27
2022-09-24T00:18:02.573Z,99203.28
2022-09-24T00:18:12.609Z,99205.69
2022-09-24T00:18:22.588Z,99200.70
2022-09-24T00:18:32.667Z,99200.11
2022-09-24T00:18:42.626Z,99198.38
2022-09-24T00:18:52.552Z,99204.02
2022-09-24T00:19:02.523Z,99204.27
2022-09-24T00:19:12.614Z,99202.77
2022-09-24T00:19:22.618Z,99204.85
2022-09-24T00:19:32.606Z,99205.95
2022-09-24T00:19:42.640Z,99204.78
2022-09-24T00:19:52.576Z,99209.84
2022-09-24T00:20:02.588Z,99203.43
2022-09-24T00:20:12.527Z,99210.25
2022-09-24T00:20:22.544Z,99201.77
2022-09-24T00:20:32.556Z,99204.97
2022-09-24T00:20:42.656Z,99203.55
2022-09-24T00:20:52.532Z,99200.72
2022-09-24T00:21:02.533Z,99208.42
2022-09-24T00:21:12.626Z,99207.20
2022-09-24T00:21:22.566Z,99203.14
2022-09-24T00:21:32.646Z,99199.89
2022-09-24T00:21:42.579Z,99203.05
2022-09-24T00:21:52.610Z,99203.78
2022-09-24T00:22:02.617Z,99206.70
2022-09-24T00:22:12.635Z,99206.54
2022-09-24T00:22:22.563Z,99202.95
2022-09-24T00:22:32.636Z,99205.98
2022-09-24T00:22:42.542Z,99204.16
2022-09-24T00:22:52.600Z,99202.45
2022-09-24T00:23:02.542Z,99204.33
2022-09-24T00:23:12.603Z,99206.48
2022-09-24T00:23:22.639Z,99204.83
2022-09-24T00:23:32.570Z,99203.12
2022-09-24T00:23:42.573Z,99204.50
2022-09-24T00:23:52.571Z,99208.16
2022-09-24T00:24:02.574Z,99206.61
2022-09-24T00:24:12.612Z,99203.27
2022-09-24T00:24:22.612Z,99202.14
2022-09-24T00:24:32.576Z,99203.05
2022-09-24T00:24:42.586Z,99207.20
2022-09-24T00:24:52.647Z,99206.04
2022-09-24T00:25:02.535Z,99208.60
2022-09-24T00:25:12.600Z,99203.05
2022-09-24T00:25:22.608Z,99202.00
2022-09-24T00:25:32.595Z,99198.41
2022-09-24T00:25:42.529Z,99203.23
2022-09-24T00:25:52.590Z,99202.42
2022-09-24T00:26:02.620Z,99203.09
2022-09-24T00:26:12.621Z,99208.50
2022-09-24T00:26:22.642Z,99203.88
2022-09-24T00:26:32.618Z,99200.53
2022-09-24T00:26:42.552Z,99202.20
2022-09-24T00:26:52.648Z,99199.95
2022-09-24T00:27:02.634Z,99201.69
2022-09-24T00:27:12.555Z,99200.91
2022-09-24T00:27:22.604Z,99203.52
2022-09-24T00:27:32.528Z,99202.45
2022-09-24T00:27:42.618Z,99203.85
2022-09-24T00:27:52.552Z,99203.30
2022-09-24T00:28:02.585Z,99204.97
2022-09-24T00:28:12.622Z,99203.80
2022-09-24T00:28:22.605Z,99200.64
2022-09-24T00:28:32.583Z,99203.55
2022-09-24T00:28:42.650Z,99199.59
2022-09-24T00:28:52.549Z,99204.98
2022-09-24T00:29:02.602Z,99201.05
2022-09-24T00:29:12.523Z,99207.41
2022-09-24T00:29:22.624Z,99200.45
2022-09-24T00:29:32.644Z,99202.73
2022-09-24T00:29:42.538Z,99197.95
2022-09-24T00:29:52.523Z,99205.89
2022-09-24T00:30:02.623Z,99204.44
2022-09-24T00:30:12.524Z,99202.56
2022-09-24T00:30:22.540Z,99205.17
2022-09-24T00:30:32.541Z,99203.59
2022-09-24T00:30:42.555Z,99204.25
2022-09-24T00:30:52.583Z,99204.30
2022-09-24T00:31:02.610Z,99200.80
2022-09-24T00:31:12.648Z,99202.38
2022-09-24T00:31:22.602Z,99199.88
2022-09-24T00:31:32.630Z,99196.31
2022-09-24T00:31:42.632Z,99200.72
2022-09-24T00:31:52.789Z,99199.05
2022-09-24T00:32:02.639Z,99199.23
2022-09-24T00:32:12.658Z,99202.39
2022-09-24T00:32:22.644Z,99200.83
2022-09-24T00:32:32.563Z,99199.36
2022-09-24T00:32:42.623Z,99203.23
2022-09-24T00:32:52.595Z,99200.97
2022-09-24T00:33:02.600Z,99199.41
2022-09-24T00:33:12.622Z,99200.99
2022-09-24T00:33:22.623Z,99203.16
2022-09-24T00:33:32.520Z,99202.02
2022-09-24T00:33:42.618Z,99196.45
2022-09-24T00:33:52.592Z,99205.01
2022-09-24T00:34:02.638Z,99202.08
2022-09-24T00:34:12.637Z,99202.67
2022-09-24T00:34:22.557Z,99203.02
2022-09-24T00:34:32.557Z,99202.02
2022-09-24T00:34:42.550Z,99199.12
2022-09-24T00:34:52.556Z,99198.12
2022-09-24T00:35:02.580Z,99200.78
2022-09-24T00:35:12.597Z,99198.02
2022-09-24T00:35:22.588Z,99195.58
2022-09-24T00:35:32.597Z,99196.45
2022-09-24T00:35:42.603Z,99196.31
2022-09-24T00:35:52.632Z,99198.22
2022-09-24T00:36:02.622Z,99199.55
2022-09-24T00:36:12.566Z,99198.55
2022-09-24T00:36:22.572Z,99198.26
2022-09-24T00:36:32.592Z,99199.92
2022-09-24T00:36:42.533Z,99199.22
2022-09-24T00:36:52.642Z,99197.83
2022-09-24T00:37:02.606Z,99198.33
2022-09-24T00:37:12.664Z,99194.95
2022-09-24T00:37:22.570Z,99197.95
2022-09-24T00:37:32.576Z,99198.78
2022-09-24T00:37:42.571Z,99197.76
2022-09-24T00:37:52.559Z,99201.84
2022-09-24T00:38:02.575Z,99193.61
2022-09-24T00:38:12.539Z,99198.44
2022-09-24T00:38:22.588Z,99197.92
2022-09-24T00:38:32.608Z,99194.60
2022-09-24T00:38:42.588Z,99193.94
2022-09-24T00:38:52.635Z,99195.14
2022-09-24T00:39:02.585Z,99196.14
2022-09-24T00:39:12.528Z,99193.22
2022-09-24T00:39:22.602Z,99197.05
2022-09-24T00:39:32.604Z,99195.38
2022-09-24T00:39:42.531Z,99198.54
2022-09-24T00:39:52.618Z,99197.59
2022-09-24T00:40:02.626Z,99195.97
2022-09-24T00:40:12.634Z,99196.88
2022-09-24T00:40:22.723Z,99197.28
2022-09-24T00:40:32.579Z,99196.22
2022-09-24T00:40:42.744Z,99193.46
2022-09-24T00:40:52.645Z,99197.62
2022-09-24T00:41:02.628Z,99196.12
2022-09-24T00:41:12.526Z,99196.47
2022-09-24T00:41:22.599Z,99195.28
2022-09-24T00:41:32.605Z,99196.45
2022-09-24T00:41:42.653Z,99198.70
2022-09-24T00:41:52.621Z,99196.22
2022-09-24T00:42:02.588Z,99191.56
2022-09-24T00:42:12.558Z,99194.95
2022-09-24T00:42:22.615Z,99195.28
2022-09-24T00:42:32.594Z,99197.88
2022-09-24T00:42:42.592Z,99197.05
2022-09-24T00:42:52.576Z,99194.45
2022-09-24T00:43:02.532Z,99196.78
2022-09-24T00:43:12.648Z,99194.83
2022-09-24T00:43:22.577Z,99193.74
2022-09-24T00:43:32.540Z,99193.74
2022-09-24T00:43:42.576Z,99191.58
2022-09-24T00:43:52.570Z,99195.81
2022-09-24T00:44:02.622Z,99200.23
2022-09-24T00:44:12.536Z,99193.50
2022-09-24T00:44:22.632Z,99195.85
2022-09-24T00:44:32.553Z,99189.20
2022-09-24T00:44:42.542Z,99189.61
2022-09-24T00:44:52.555Z,99193.94
2022-09-24T00:45:02.611Z,99193.59
2022-09-24T00:45:12.612Z,99194.48
2022-09-24T00:45:22.629Z,99193.94
2022-09-24T00:45:32.551Z,99192.10
2022-09-24T00:45:42.655Z,99194.02
2022-09-24T00:45:52.647Z,99194.36
2022-09-24T00:46:02.569Z,99193.77
2022-09-24T00:46:12.655Z,99193.88
2022-09-24T00:46:22.642Z,99194.21
2022-09-24T00:46:32.648Z,99193.72
2022-09-24T00:46:42.705Z,99194.21
2022-09-24T00:46:52.626Z,99190.96
2022-09-24T00:47:02.783Z,99192.53
2022-09-24T00:47:12.558Z,99194.69
2022-09-24T00:47:22.593Z,99192.03
2022-09-24T00:47:32.633Z,99194.21
2022-09-24T00:47:42.637Z,99194.21
2022-09-24T00:47:52.518Z,99195.04
2022-09-24T00:48:02.540Z,99193.45
2022-09-24T00:48:12.534Z,99199.48
2022-09-24T00:48:22.535Z,99197.70
2022-09-24T00:48:32.656Z,99194.52
2022-09-24T00:48:42.635Z,99191.36
2022-09-24T00:48:52.615Z,99192.73
2022-09-24T00:49:02.527Z,99191.73
2022-09-24T00:49:12.644Z,99190.94
2022-09-24T00:49:22.552Z,99194.69
2022-09-24T00:49:32.576Z,99197.05
2022-09-24T00:49:42.662Z,99193.23
2022-09-24T00:49:52.588Z,99190.77
2022-09-24T00:50:02.529Z,99191.16
2022-09-24T00:50:12.616Z,99193.42
2022-09-24T00:50:22.596Z,99193.59
2022-09-24T00:50:32.535Z,99194.40
2022-09-24T00:50:42.642Z,99195.80
2022-09-24T00:50:52.541Z,99191.93
2022-09-24T00:51:02.618Z,99189.51
2022-09-24T00:51:12.632Z,99193.31
2022-09-24T00:51:22.529Z,99188.94
2022-09-24T00:51:32.629Z,99196.04
2022-09-24T00:51:42.523Z,99196.75
2022-09-24T00:51:52.591Z,99197.58
2022-09-24T00:52:02.604Z,99193.64
2022-09-24T00:52:12.533Z,99195.80
2022-09-24T00:52:22.622Z,99197.30
2022-09-24T00:52:32.589Z,99193.31
2022-09-24T00:52:42.541Z,99196.63
2022-09-24T00:52:52.564Z,99193.07
2022-09-24T00:53:02.643Z,99192.70
2022-09-24T00:53:12.631Z,99194.64
2022-09-24T00:53:22.609Z,99197.45
2022-09-24T00:53:32.523Z,99190.91
2022-09-24T00:53:42.537Z,99192.73
2022-09-24T00:53:52.656Z,99193.14
2022-09-24T00:54:02.647Z,99192.31
2022-09-24T00:54:12.589Z,99192.41
2022-09-24T00:54:22.527Z,99190.81
2022-09-24T00:54:32.635Z,99193.86
2022-09-24T00:54:42.577Z,99192.64
2022-09-24T00:54:52.587Z,99192.48
2022-09-24T00:55:02.631Z,99188.58
2022-09-24T00:55:12.593Z,99196.80
2022-09-24T00:55:22.595Z,99194.07
2022-09-24T00:55:32.553Z,99192.08
2022-09-24T00:55:42.561Z,99195.56
2022-09-24T00:55:52.547Z,99195.97
2022-09-24T00:56:02.577Z,99193.07
2022-09-24T00:56:12.548Z,99189.58
2022-09-24T00:56:22.575Z,99191.08
2022-09-24T00:56:32.543Z,99191.05
2022-09-24T00:56:42.559Z,99195.14
2022-09-24T00:56:52.524Z,99192.08
2022-09-24T00:57:02.653Z,99189.44
2022-09-24T00:57:12.585Z,99195.47
2022-09-24T00:57:22.548Z,99193.31
2022-09-24T00:57:32.536Z,99192.08
2022-09-24T00:57:42.614Z,99189.39
2022-09-24T00:57:52.626Z,99190.91
2022-09-24T00:58:02.629Z,99189.10
2022-09-24T00:58:12.528Z,99191.93
2022-09-24T00:58:22.553Z,99191.27
2022-09-24T00:58:32.572Z,99188.94
2022-09-24T00:58:42.580Z,99192.78
2022-09-24T00:58:52.627Z,99195.56
2022-09-24T00:59:02.625Z,99191.08
2022-09-24T00:59:12.529Z,99197.01
2022-09-24T00:59:22.627Z,99193.85
2022-09-24T00:59:32.562Z,99188.81
2022-09-24T00:59:42.559Z,99190.31
2022-09-24T00:59:52.520Z,99192.27
2022-09-24T01:00:02.539Z,99194.80
2022-09-24T01:00:12.559Z,99192.55
2022-09-24T01:00:22.606Z,99192.12
2022-09-24T01:00:32.717Z,99194.97
2022-09-24T01:00:42.673Z,99194.30
2022-09-24T01:00:52.738Z,99194.03
2022-09-24T01:01:02.634Z,99192.80
2022-09-24T01:01:12.709Z,99192.55
2022-09-24T01:01:22.599Z,99192.12
2022-09-24T01:01:32.600Z,99192.78
2022-09-24T01:01:42.622Z,99192.98
2022-09-24T01:01:52.703Z,99195.70
2022-09-24T01:02:02.556Z,99191.45
2022-09-24T01:02:12.641Z,99193.23
2022-09-24T01:02:22.753Z,99196.34
2022-09-24T01:02:32.595Z,99193.97
2022-09-24T01:02:42.533Z,99191.84
2022-09-24T01:02:52.546Z,99192.02
2022-09-24T01:03:02.550Z,99195.65
2022-09-24T01:03:12.548Z,99193.53
2022-09-24T01:03:22.594Z,99196.48
2022-09-24T01:03:32.537Z,99195.10
2022-09-24T01:03:42.620Z,99192.89
2022-09-24T01:03:52.620Z,99195.00
2022-09-24T01:04:02.606Z,99189.69
2022-09-24T01:04:12.637Z,99191.06
2022-09-24T01:04:22.538Z,99194.27
2022-09-24T01:04:32.548Z,99194.38
2022-09-24T01:04:42.592Z,99190.30
2022-09-24T01:04:56.291Z,99194.78
2022-09-24T01:05:02.540Z,99192.87
2022-09-24T01:05:12.537Z,99196.05
2022-09-24T01:05:22.641Z,99192.70
2022-09-24T01:05:32.538Z,99193.03
2022-09-24T01:05:42.631Z,99192.20
2022-09-24T01:05:52.629Z,99191.23
2022-09-24T01:06:02.641Z,99193.36
2022-09-24T01:06:12.523Z,99190.88
2022-09-24T01:06:22.575Z,99186.92
2022-09-24T01:06:32.591Z,99193.30
2022-09-24T01:06:42.565Z,99192.04
2022-09-24T01:06:52.577Z,99189.05
2022-09-24T01:07:02.592Z,99193.70
2022-09-24T01:07:12.604Z,99189.05
2022-09-24T01:07:22.575Z,99192.70
2022-09-24T01:07:32.565Z,99191.75
2022-09-24T01:07:42.608Z,99194.91
2022-09-24T01:07:52.573Z,99189.90
2022-09-24T01:08:02.635Z,99187.23
2022-09-24T01:08:12.643Z,99186.05
2022-09-24T01:08:22.523Z,99188.38
2022-09-24T01:08:32.520Z,99189.97
2022-09-24T01:08:42.590Z,99188.81
2022-09-24T01:08:52.532Z,99187.05
2022-09-24T01:09:02.636Z,99185.89
2022-09-24T01:09:12.552Z,99190.23
2022-09-24T01:09:22.551Z,99189.73
2022-09-24T01:09:32.599Z,99188.91
2022-09-24T01:09:42.567Z,99190.97
2022-09-24T01:09:52.634Z,99190.73
2022-09-24T01:10:02.590Z,99189.06
2022-09-24T01:10:12.607Z,99189.38
2022-09-24T01:10:22.626Z,99185.75
2022-09-24T01:10:32.585Z,99189.36
2022-09-24T01:10:42.585Z,99192.94
2022-09-24T01:10:52.595Z,99191.39
2022-09-24T01:11:02.547Z,99188.95
2022-09-24T01:11:12.549Z,99191.61
2022-09-24T01:11:22.629Z,99192.61
2022-09-24T01:11:32.564Z,99193.27
2022-09-24T01:11:42.534Z,99189.45
2022-09-24T01:11:52.553Z,99192.56
2022-09-24T01:12:02.528Z,99195.44
2022-09-24T01:12:12.534Z,99189.95
2022-09-24T01:12:22.568Z,99195.55
2022-09-24T01:12:32.650Z,99196.92
2022-09-24T01:12:42.599Z,99195.22
2022-09-24T01:12:52.572Z,99197.04
2022-09-24T01:13:02.586Z,99195.67
2022-09-24T01:13:12.618Z,99194.88
2022-09-24T01:13:22.575Z,99192.56
2022-09-24T01:13:32.573Z,99194.84
2022-09-24T01:13:43.787Z,99196.27
2022-09-24T01:13:52.607Z,99195.88
2022-09-24T01:14:02.548Z,99196.92
2022-09-24T01:14:12.525Z,99193.95
2022-09-24T01:14:22.655Z,99192.72
2022-09-24T01:14:32.565Z,99194.22
2022-09-24T01:14:42.568Z,99194.29
2022-09-24T01:14:52.556Z,99194.72
2022-09-24T01:15:02.624Z,99192.70
2022-09-24T01:15:12.543Z,99195.00
2022-09-24T01:15:22.619Z,99197.26
2022-09-24T01:15:32.599Z,99195.50
2022-09-24T01:15:42.797Z,99195.17
2022-09-24T01:15:52.739Z,99190.73
2022-09-24T01:16:02.598Z,99194.34
2022-09-24T01:16:12.684Z,99192.89
2022-09-24T01:16:22.611Z,99194.67
2022-09-24T01:16:32.644Z,99193.51
2022-09-24T01:16:42.668Z,99191.39
2022-09-24T01:16:52.620Z,99193.22
2022-09-24T01:17:02.639Z,99191.72
2022-09-24T01:17:12.590Z,99192.72
2022-09-24T01:17:22.657Z,99194.10
2022-09-24T01:17:32.571Z,99194.67
2022-09-24T01:17:42.522Z,99190.97
2022-09-24T01:17:52.521Z,99195.28
2022-09-24T01:18:02.584Z,99193.05
2022-09-24T01:18:12.641Z,99190.56
2022-09-24T01:18:22.532Z,99193.12
2022-09-24T01:18:32.533Z,99190.55
2022-09-24T01:18:42.562Z,99190.20
2022-09-24T01:18:52.603Z,99191.80
2022-09-24T01:19:02.586Z,99191.62
2022-09-24T01:19:12.559Z,99191.56
2022-09-24T01:19:22.524Z,99191.80
2022-09-24T01:19:32.604Z,99191.08
2022-09-24T01:19:42.532Z,99193.39
2022-09-24T01:19:52.539Z,99188.81
2022-09-24T01:20:02.667Z,99190.88
2022-09-24T01:20:12.521Z,99192.12
2022-09-24T01:20:22.565Z,99189.64
2022-09-24T01:20:32.628Z,99187.57
2022-09-24T01:20:42.556Z,99191.89
2022-09-24T01:20:52.593Z,99188.66
2022-09-24T01:21:02.532Z,99191.04
2022-09-24T01:21:12.621Z,99196.21
2022-09-24T01:21:22.620Z,99194.45
2022-09-24T01:21:32.550Z,99195.86
2022-09-24T01:21:42.543Z,99198.52
2022-09-24T01:21:52.661Z,99197.02
2022-09-24T01:22:02.522Z,99195.57
2022-09-24T01:22:12.553Z,99198.80
2022-09-24T01:22:22.542Z,99193.41
2022-09-24T01:22:32.614Z,99194.41
2022-09-24T01:22:42.581Z,99196.19
2022-09-24T01:22:52.650Z,99193.88
2022-09-24T01:23:02.550Z,99194.42
2022-09-24T01:23:12.599Z,99196.14
2022-09-24T01:23:22.651Z,99194.88
2022-09-24T01:23:32.586Z,99198.41
2022-09-24T01:23:47.756Z,99195.72
2022-09-24T01:23:52.552Z,99197.54
2022-09-24T01:24:02.644Z,99191.84
2022-09-24T01:24:12.616Z,99196.25
2022-09-24T01:24:22.532Z,99191.44
2022-09-24T01:24:32.593Z,99193.27
2022-09-24T01:24:42.551Z,99195.16
2022-09-24T01:24:52.554Z,99194.26
2022-09-24T01:25:02.535Z,99191.60
2022-09-24T01:25:12.523Z,99197.91
2022-09-24T01:25:22.590Z,99195.09
2022-09-24T01:25:32.613Z,99192.39
2022-09-24T01:25:42.617Z,99192.09
2022-09-24T01:25:52.643Z,99192.72
2022-09-24T01:26:02.544Z,99192.77
2022-09-24T01:26:12.616Z,99194.26
2022-09-24T01:26:22.655Z,99192.98
2022-09-24T01:26:32.523Z,99196.30
2022-09-24T01:26:42.543Z,99195.48
2022-09-24T01:26:52.556Z,99193.58
2022-09-24T01:27:02.649Z,99194.86
2022-09-24T01:27:12.624Z,99193.73
2022-09-24T01:27:22.593Z,99194.23
2022-09-24T01:27:32.642Z,99191.82
2022-09-24T01:27:42.601Z,99192.72
2022-09-24T01:27:52.609Z,99190.55
2022-09-24T01:28:02.579Z,99191.97
2022-09-24T01:28:12.584Z,99192.37
2022-09-24T01:28:22.536Z,99194.91
2022-09-24T01:28:32.580Z,99195.95
2022-09-24T01:28:42.523Z,99199.53
2022-09-24T01:28:52.553Z,99191.23
2022-09-24T01:29:02.618Z,99191.06
2022-09-24T01:29:12.618Z,99191.69
2022-09-24T01:29:22.607Z,99194.88
2022-09-24T01:29:32.528Z,99187.57
2022-09-24T01:29:42.563Z,99189.88
2022-09-24T01:29:52.520Z,99188.88
2022-09-24T01:30:02.564Z,99190.30
2022-09-24T01:30:12.643Z,99191.80
2022-09-24T01:30:22.583Z,99191.87
2022-09-24T01:30:32.657Z,99189.55
2022-09-24T01:30:42.603Z,99189.64
2022-09-24T01:30:52.645Z,99188.81
2022-09-24T01:31:02.774Z,99191.97
2022-09-24T01:31:12.650Z,99189.30
2022-09-24T01:31:22.706Z,99191.72
2022-09-24T01:31:32.675Z,99189.64
2022-09-24T01:31:42.636Z,99190.89
2022-09-24T01:31:52.674Z,99190.30
2022-09-24T01:32:02.554Z,99190.45
2022-09-24T01:32:12.525Z,99189.97
2022-09-24T01:32:22.638Z,99188.23
2022-09-24T01:32:32.786Z,99187.91
2022-09-24T01:32:42.559Z,99190.35
2022-09-24T01:32:52.568Z,99187.41
2022-09-24T01:33:02.565Z,99191.30
2022-09-24T01:33:12.538Z,99189.88
2022-09-24T01:33:22.545Z,99188.56
2022-09-24T01:33:32.600Z,99186.31
2022-09-24T01:33:42.540Z,99189.90
2022-09-24T01:33:52.625Z,99184.89
2022-09-24T01:34:02.563Z,99189.23
2022-09-24T01:34:12.563Z,99185.91
2022-09-24T01:34:22.585Z,99190.52
2022-09-24T01:34:32.644Z,99187.86
2022-09-24T01:34:42.616Z,99185.39
2022-09-24T01:34:52.585Z,99187.07
2022-09-24T01:35:02.556Z,99189.14
2022-09-24T01:35:12.596Z,99188.41
2022-09-24T01:35:22.659Z,99187.05
2022-09-24T01:35:32.646Z,99186.15
2022-09-24T01:35:42.582Z,99188.23
2022-09-24T01:35:52.570Z,99188.23
2022-09-24T01:36:02.540Z,99188.64
2022-09-24T01:36:12.605Z,99188.22
2022-09-24T01:36:22.560Z,99188.09
2022-09-24T01:36:32.568Z,99187.22
2022-09-24T01:36:42.559Z,99187.42
2022-09-24T01:36:52.616Z,99187.50
2022-09-24T01:37:02.645Z,99189.49
2022-09-24T01:37:12.620Z,99187.78
2022-09-24T01:37:22.593Z,99186.28
2022-09-24T01:37:32.526Z,99189.90
2022-09-24T01:37:42.641Z,99190.51
2022-09-24T01:37:52.614Z,99185.47
2022-09-24T01:38:02.539Z,99190.34
2022-09-24T01:38:12.520Z,99186.59
2022-09-24T01:38:22.560Z,99187.14
2022-09-24T01:38:32.527Z,99185.77
2022-09-24T01:38:42.638Z,99186.59
2022-09-24T01:38:52.621Z,99186.05
2022-09-24T01:39:02.590Z,99188.54
2022-09-24T01:39:12.583Z,99189.75
2022-09-24T01:39:22.587Z,99183.27
2022-09-24T01:39:32.648Z,99182.16
2022-09-24T01:39:42.563Z,99187.80
2022-09-24T01:39:52.595Z,99183.81
2022-09-24T01:40:02.553Z,99186.77
2022-09-24T01:40:12.610Z,99187.05
2022-09-24T01:40:22.697Z,99183.31
2022-09-24T01:40:32.755Z,99183.39
2022-09-24T01:40:42.712Z,99188.02
2022-09-24T01:40:52.651Z,99185.62
2022-09-24T01:41:02.550Z,99187.47
2022-09-24T01:41:12.627Z,99182.01
2022-09-24T01:41:22.582Z,99180.64
2022-09-24T01:41:32.546Z,99181.17
2022-09-24T01:41:42.525Z,99185.83
2022-09-24T01:41:52.599Z,99180.27
2022-09-24T01:42:02.565Z,99183.02
2022-09-24T01:42:12.532Z,99183.69
2022-09-24T01:42:22.592Z,99184.85
2022-09-24T01:42:32.575Z,99184.27
2022-09-24T01:42:42.571Z,99179.84
2022-09-24T01:42:52.612Z,99183.27
2022-09-24T01:43:02.532Z,99182.03
2022-09-24T01:43:12.618Z,99179.27
2022-09-24T01:43:22.565Z,99183.81
2022-09-24T01:43:32.571Z,99181.27
2022-09-24T01:43:42.573Z,99184.42
2022-09-24T01:43:52.551Z,99180.34
2022-09-24T01:44:02.656Z,99183.33
2022-09-24T01:44:12.634Z,99180.30
2022-09-24T01:44:22.595Z,99179.72
2022-09-24T01:44:32.650Z,99182.45
2022-09-24T01:44:42.565Z,99180.86
2022-09-24T01:44:52.631Z,99181.36
2022-09-24T01:45:02.653Z,99179.58
2022-09-24T01:45:12.639Z,99177.59
2022-09-24T01:45:22.638Z,99184.19
2022-09-24T01:45:32.569Z,99181.62
2022-09-24T01:45:42.601Z,99176.66
2022-09-24T01:45:52.550Z,99179.89
2022-09-24T01:46:02.622Z,99180.81
2022-09-24T01:46:12.667Z,99178.56
2022-09-24T01:46:22.658Z,99173.62
2022-09-24T01:46:32.676Z,99178.32
2022-09-24T01:46:42.688Z,99173.67
2022-09-24T01:46:52.664Z,99178.25
2022-09-24T01:47:02.658Z,99177.16
2022-09-24T01:47:12.562Z,99177.88
2022-09-24T01:47:22.609Z,99178.23
2022-09-24T01:47:34.855Z,99174.91
2022-09-24T01:47:42.598Z,99177.97
2022-09-24T01:47:52.574Z,99175.66
2022-09-24T01:48:02.537Z,99178.20
2022-09-24T01:48:12.568Z,99178.98
2022-09-24T01:48:22.580Z,99181.64
2022-09-24T01:48:32.548Z,99178.39
2022-09-24T01:48:42.618Z,99176.56
2022-09-24T01:48:52.573Z,99181.59
2022-09-24T01:49:02.590Z,99180.88
2022-09-24T01:49:12.573Z,99182.80
2022-09-24T01:49:22.622Z,99178.76
2022-09-24T01:49:32.584Z,99176.84
2022-09-24T01:49:42.655Z,99176.44
2022-09-24T01:49:52.550Z,99183.41
2022-09-24T01:50:02.633Z,99180.09
2022-09-24T01:50:12.637Z,99181.98
2022-09-24T01:50:22.550Z,99179.33
2022-09-24T01:50:32.589Z,99178.16
2022-09-24T01:50:42.589Z,99177.00
2022-09-24T01:50:52.571Z,99180.71
2022-09-24T01:51:02.607Z,99180.33
2022-09-24T01:51:12.589Z,99178.41
2022-09-24T01:51:22.549Z,99183.43
2022-09-24T01:51:32.621Z,99176.95
2022-09-24T01:51:42.580Z,99177.12
2022-09-24T01:51:52.561Z,99178.95
2022-09-24T01:52:02.585Z,99179.35
2022-09-24T01:52:12.578Z,99176.78
2022-09-24T01:52:22.627Z,99176.45
2022-09-24T01:52:32.626Z,99177.73
2022-09-24T01:52:42.585Z,99174.92
2022-09-24T01:52:52.624Z,99177.50
2022-09-24T01:53:02.544Z,99176.91
2022-09-24T01:53:12.571Z,99174.30
2022-09-24T01:53:22.604Z,99178.95
2022-09-24T01:53:32.532Z,99179.94
2022-09-24T01:53:42.560Z,99174.77
2022-09-24T01:53:52.643Z,99175.86
2022-09-24T01:54:02.610Z,99175.70
2022-09-24T01:54:12.582Z,99179.28
2022-09-24T01:54:22.627Z,99177.69
2022-09-24T01:54:32.542Z,99173.72
2022-09-24T01:54:42.630Z,99178.69
2022-09-24T01:54:52.551Z,99181.41
2022-09-24T01:55:02.544Z,99178.47
2022-09-24T01:55:12.615Z,99179.61
2022-09-24T01:55:22.537Z,99174.31
2022-09-24T01:55:32.613Z,99176.27
2022-09-24T01:55:42.631Z,99180.84
2022-09-24T01:55:52.612Z,99175.94
2022-09-24T01:56:02.570Z,99176.20
2022-09-24T01:56:12.558Z,99177.42
2022-09-24T01:56:22.641Z,99174.72
2022-09-24T01:56:32.562Z,99167.58
2022-09-24T01:56:42.570Z,99173.06
2022-09-24T01:56:52.639Z,99175.22
2022-09-24T01:57:02.582Z,99172.62
2022-09-24T01:57:12.590Z,99173.50
2022-09-24T01:57:22.530Z,99172.17